sensor_id;sensor_type;location;lat;lon;timestamp;pressure;altitude;pressure_sealevel;temperature
15680;BMP180;15488;48.114;11.532;2023-04-03T00:00:56;95828.00;;;13.00
15680;BMP180;15488;48.114;11.532;2023-04-03T00:03:24;95826.00;;;13.00
15680;BMP180;15488;48.114;11.532;2023-04-03T00:05:51;95826.00;;;13.00
15680;BMP180;15488;48.114;11.532;2023-04-03T00:08:19;95826.00;;;13.00
15680;BMP180;15488;48.114;11.532;2023-04-03T00:10:48;95831.00;;;12.90
15680;BMP180;15488;48.114;11.532;2023-04-03T00:13:16;95822.00;;;13.00
15680;BMP180;15488;48.114;11.532;2023-04-03T00:15:43;95827.00;;;13.00
15680;BMP180;15488;48.114;11.532;2023-04-03T00:18:11;95828.00;;;13.00
15680;BMP180;15488;48.114;11.532;2023-04-03T00:20:39;95825.00;;;13.00
15680;BMP180;15488;48.114;11.532;2023-04-03T00:23:06;95827.00;;;13.00
15680;BMP180;15488;48.114;11.532;2023-04-03T00:25:34;95830.00;;;13.00
15680;BMP180;15488;48.114;11.532;2023-04-03T00:28:03;95828.00;;;13.00
15680;BMP180;15488;48.114;11.532;2023-04-03T00:30:32;95829.00;;;13.00
15680;BMP180;15488;48.114;11.532;2023-04-03T00:32:59;95828.00;;;13.00
15680;BMP180;15488;48.114;11.532;2023-04-03T00:35:28;95834.00;;;13.00
15680;BMP180;15488;48.114;11.532;2023-04-03T00:37:56;95829.00;;;12.90
15680;BMP180;15488;48.114;11.532;2023-04-03T00:40:26;95826.00;;;12.90
15680;BMP180;15488;48.114;11.532;2023-04-03T00:42:57;95829.00;;;12.90
15680;BMP180;15488;48.114;11.532;2023-04-03T00:45:33;95827.00;;;12.90
15680;BMP180;15488;48.114;11.532;2023-04-03T00:48:02;95832.00;;;12.90
15680;BMP180;15488;48.114;11.532;2023-04-03T00:50:33;95830.00;;;12.90
15680;BMP180;15488;48.114;11.532;2023-04-03T00:53:03;95829.00;;;12.90
15680;BMP180;15488;48.114;11.532;2023-04-03T00:55:31;95831.00;;;12.90
15680;BMP180;15488;48.114;11.532;2023-04-03T00:58:00;95825.00;;;12.90
15680;BMP180;15488;48.114;11.532;2023-04-03T01:00:29;95829.00;;;12.90
15680;BMP180;15488;48.114;11.532;2023-04-03T01:02:57;95825.00;;;12.90
15680;BMP180;15488;48.114;11.532;2023-04-03T01:05:25;95822.00;;;12.90
15680;BMP180;15488;48.114;11.532;2023-04-03T01:07:53;95829.00;;;12.90
15680;BMP180;15488;48.114;11.532;2023-04-03T01:10:21;95831.00;;;12.90
15680;BMP180;15488;48.114;11.532;2023-04-03T01:12:51;95824.00;;;12.90
15680;BMP180;15488;48.114;11.532;2023-04-03T01:15:21;95831.00;;;12.90
15680;BMP180;15488;48.114;11.532;2023-04-03T01:17:52;95833.00;;;12.90
15680;BMP180;15488;48.114;11.532;2023-04-03T01:20:48;95825.00;;;12.90
15680;BMP180;15488;48.114;11.532;2023-04-03T01:23:41;95828.00;;;12.90
15680;BMP180;15488;48.114;11.532;2023-04-03T01:26:10;95836.00;;;12.90
15680;BMP180;15488;48.114;11.532;2023-04-03T01:28:38;95829.00;;;12.80
15680;BMP180;15488;48.114;11.532;2023-04-03T01:31:13;95835.00;;;12.80
15680;BMP180;15488;48.114;11.532;2023-04-03T01:33:44;95834.00;;;12.80
15680;BMP180;15488;48.114;11.532;2023-04-03T01:36:15;95837.00;;;12.80
15680;BMP180;15488;48.114;11.532;2023-04-03T01:38:43;95839.00;;;12.80
15680;BMP180;15488;48.114;11.532;2023-04-03T01:41:10;95837.00;;;12.80
15680;BMP180;15488;48.114;11.532;2023-04-03T01:43:38;95837.00;;;12.80
15680;BMP180;15488;48.114;11.532;2023-04-03T01:46:05;95837.00;;;12.80
15680;BMP180;15488;48.114;11.532;2023-04-03T01:48:34;95836.00;;;12.80
15680;BMP180;15488;48.114;11.532;2023-04-03T01:51:03;95839.00;;;12.80
15680;BMP180;15488;48.114;11.532;2023-04-03T01:53:30;95834.00;;;12.80
15680;BMP180;15488;48.114;11.532;2023-04-03T01:55:57;95840.00;;;12.80
15680;BMP180;15488;48.114;11.532;2023-04-03T01:58:25;95833.00;;;12.80
15680;BMP180;15488;48.114;11.532;2023-04-03T02:00:53;95825.00;;;12.80
15680;BMP180;15488;48.114;11.532;2023-04-03T02:03:21;95834.00;;;12.80
15680;BMP180;15488;48.114;11.532;2023-04-03T02:05:49;95831.00;;;12.80
15680;BMP180;15488;48.114;11.532;2023-04-03T02:08:18;95832.00;;;12.80
15680;BMP180;15488;48.114;11.532;2023-04-03T02:10:47;95831.00;;;12.90
15680;BMP180;15488;48.114;11.532;2023-04-03T02:13:15;95833.00;;;12.80
15680;BMP180;15488;48.114;11.532;2023-04-03T02:15:43;95830.00;;;12.80
15680;BMP180;15488;48.114;11.532;2023-04-03T02:18:12;95831.00;;;12.80
15680;BMP180;15488;48.114;11.532;2023-04-03T02:20:39;95828.00;;;12.80
15680;BMP180;15488;48.114;11.532;2023-04-03T02:23:07;95829.00;;;12.80
15680;BMP180;15488;48.114;11.532;2023-04-03T02:25:36;95829.00;;;12.80
15680;BMP180;15488;48.114;11.532;2023-04-03T02:28:03;95826.00;;;12.80
15680;BMP180;15488;48.114;11.532;2023-04-03T02:30:31;95823.00;;;12.80
15680;BMP180;15488;48.114;11.532;2023-04-03T02:32:58;95824.00;;;12.80
15680;BMP180;15488;48.114;11.532;2023-04-03T02:35:26;95822.00;;;12.80
15680;BMP180;15488;48.114;11.532;2023-04-03T02:37:53;95825.00;;;12.80
15680;BMP180;15488;48.114;11.532;2023-04-03T02:40:20;95828.00;;;12.80
15680;BMP180;15488;48.114;11.532;2023-04-03T02:42:49;95826.00;;;12.80
15680;BMP180;15488;48.114;11.532;2023-04-03T02:45:17;95824.00;;;12.80
15680;BMP180;15488;48.114;11.532;2023-04-03T02:47:44;95832.00;;;12.80
15680;BMP180;15488;48.114;11.532;2023-04-03T02:50:12;95825.00;;;12.80
15680;BMP180;15488;48.114;11.532;2023-04-03T02:52:39;95831.00;;;12.80
15680;BMP180;15488;48.114;11.532;2023-04-03T02:55:07;95826.00;;;12.80
15680;BMP180;15488;48.114;11.532;2023-04-03T02:57:35;95822.00;;;12.80
15680;BMP180;15488;48.114;11.532;2023-04-03T03:00:05;95825.00;;;12.70
15680;BMP180;15488;48.114;11.532;2023-04-03T03:02:33;95828.00;;;12.80
15680;BMP180;15488;48.114;11.532;2023-04-03T03:05:00;95831.00;;;12.80
15680;BMP180;15488;48.114;11.532;2023-04-03T03:07:28;95829.00;;;12.80
15680;BMP180;15488;48.114;11.532;2023-04-03T03:09:55;95830.00;;;12.80
15680;BMP180;15488;48.114;11.532;2023-04-03T03:12:23;95837.00;;;12.80
15680;BMP180;15488;48.114;11.532;2023-04-03T03:14:51;95835.00;;;12.80
15680;BMP180;15488;48.114;11.532;2023-04-03T03:17:20;95835.00;;;12.80
15680;BMP180;15488;48.114;11.532;2023-04-03T03:19:47;95835.00;;;12.80
15680;BMP180;15488;48.114;11.532;2023-04-03T03:22:15;95825.00;;;12.80
15680;BMP180;15488;48.114;11.532;2023-04-03T03:24:43;95830.00;;;12.80
15680;BMP180;15488;48.114;11.532;2023-04-03T03:27:10;95837.00;;;12.80
15680;BMP180;15488;48.114;11.532;2023-04-03T03:29:38;95835.00;;;12.80
15680;BMP180;15488;48.114;11.532;2023-04-03T03:32:06;95839.00;;;12.80
15680;BMP180;15488;48.114;11.532;2023-04-03T03:34:34;95834.00;;;12.80
15680;BMP180;15488;48.114;11.532;2023-04-03T03:37:02;95836.00;;;12.80
15680;BMP180;15488;48.114;11.532;2023-04-03T03:39:29;95826.00;;;12.80
15680;BMP180;15488;48.114;11.532;2023-04-03T03:41:57;95832.00;;;12.80
15680;BMP180;15488;48.114;11.532;2023-04-03T03:44:24;95830.00;;;12.80
15680;BMP180;15488;48.114;11.532;2023-04-03T03:46:52;95838.00;;;12.70
15680;BMP180;15488;48.114;11.532;2023-04-03T03:49:19;95831.00;;;12.80
15680;BMP180;15488;48.114;11.532;2023-04-03T03:51:48;95833.00;;;12.80
15680;BMP180;15488;48.114;11.532;2023-04-03T03:54:16;95829.00;;;12.80
15680;BMP180;15488;48.114;11.532;2023-04-03T03:56:43;95828.00;;;12.80
15680;BMP180;15488;48.114;11.532;2023-04-03T03:59:12;95830.00;;;12.80
15680;BMP180;15488;48.114;11.532;2023-04-03T04:01:39;95830.00;;;12.70
15680;BMP180;15488;48.114;11.532;2023-04-03T04:04:07;95834.00;;;12.80
15680;BMP180;15488;48.114;11.532;2023-04-03T04:06:34;95829.00;;;12.80
15680;BMP180;15488;48.114;11.532;2023-04-03T04:09:03;95821.00;;;12.80
15680;BMP180;15488;48.114;11.532;2023-04-03T04:11:30;95826.00;;;12.80
15680;BMP180;15488;48.114;11.532;2023-04-03T04:13:59;95827.00;;;12.70
15680;BMP180;15488;48.114;11.532;2023-04-03T04:16:26;95828.00;;;12.70
15680;BMP180;15488;48.114;11.532;2023-04-03T04:18:54;95833.00;;;12.70
15680;BMP180;15488;48.114;11.532;2023-04-03T04:21:21;95830.00;;;12.70
15680;BMP180;15488;48.114;11.532;2023-04-03T04:23:49;95835.00;;;12.70
15680;BMP180;15488;48.114;11.532;2023-04-03T04:26:17;95836.00;;;12.70
15680;BMP180;15488;48.114;11.532;2023-04-03T04:28:46;95830.00;;;12.70
15680;BMP180;15488;48.114;11.532;2023-04-03T04:31:13;95837.00;;;12.80
15680;BMP180;15488;48.114;11.532;2023-04-03T04:33:41;95834.00;;;12.70
15680;BMP180;15488;48.114;11.532;2023-04-03T04:36:08;95841.00;;;12.70
15680;BMP180;15488;48.114;11.532;2023-04-03T04:38:36;95843.00;;;12.70
15680;BMP180;15488;48.114;11.532;2023-04-03T04:41:04;95846.00;;;12.70
15680;BMP180;15488;48.114;11.532;2023-04-03T04:43:33;95841.00;;;12.70
15680;BMP180;15488;48.114;11.532;2023-04-03T04:46:02;95849.00;;;12.70
15680;BMP180;15488;48.114;11.532;2023-04-03T04:48:29;95846.00;;;12.70
15680;BMP180;15488;48.114;11.532;2023-04-03T04:50:57;95845.00;;;12.70
15680;BMP180;15488;48.114;11.532;2023-04-03T04:53:24;95846.00;;;12.70
15680;BMP180;15488;48.114;11.532;2023-04-03T04:55:52;95842.00;;;12.70
15680;BMP180;15488;48.114;11.532;2023-04-03T04:58:19;95844.00;;;12.80
15680;BMP180;15488;48.114;11.532;2023-04-03T05:00:48;95852.00;;;12.80
15680;BMP180;15488;48.114;11.532;2023-04-03T05:03:16;95846.00;;;12.80
15680;BMP180;15488;48.114;11.532;2023-04-03T05:05:43;95849.00;;;12.80
15680;BMP180;15488;48.114;11.532;2023-04-03T05:08:11;95854.00;;;12.80
15680;BMP180;15488;48.114;11.532;2023-04-03T05:10:38;95856.00;;;12.80
15680;BMP180;15488;48.114;11.532;2023-04-03T05:13:07;95855.00;;;12.80
15680;BMP180;15488;48.114;11.532;2023-04-03T05:15:35;95855.00;;;12.80
15680;BMP180;15488;48.114;11.532;2023-04-03T05:18:03;95860.00;;;12.80
15680;BMP180;15488;48.114;11.532;2023-04-03T05:20:32;95858.00;;;12.80
15680;BMP180;15488;48.114;11.532;2023-04-03T05:22:59;95850.00;;;12.80
15680;BMP180;15488;48.114;11.532;2023-04-03T05:25:27;95869.00;;;12.80
15680;BMP180;15488;48.114;11.532;2023-04-03T05:27:54;95862.00;;;12.80
15680;BMP180;15488;48.114;11.532;2023-04-03T05:30:22;95865.00;;;12.80
15680;BMP180;15488;48.114;11.532;2023-04-03T05:32:50;95860.00;;;12.80
15680;BMP180;15488;48.114;11.532;2023-04-03T05:35:19;95858.00;;;12.80
15680;BMP180;15488;48.114;11.532;2023-04-03T05:37:46;95859.00;;;12.90
15680;BMP180;15488;48.114;11.532;2023-04-03T05:40:13;95861.00;;;12.90
15680;BMP180;15488;48.114;11.532;2023-04-03T05:42:41;95866.00;;;12.90
15680;BMP180;15488;48.114;11.532;2023-04-03T05:45:09;95862.00;;;12.90
15680;BMP180;15488;48.114;11.532;2023-04-03T05:47:37;95865.00;;;13.00
15680;BMP180;15488;48.114;11.532;2023-04-03T05:50:05;95862.00;;;13.00
15680;BMP180;15488;48.114;11.532;2023-04-03T05:52:36;95863.00;;;13.00
15680;BMP180;15488;48.114;11.532;2023-04-03T05:55:05;95864.00;;;13.00
15680;BMP180;15488;48.114;11.532;2023-04-03T05:57:33;95864.00;;;13.00
15680;BMP180;15488;48.114;11.532;2023-04-03T06:00:00;95872.00;;;13.10
15680;BMP180;15488;48.114;11.532;2023-04-03T06:02:28;95863.00;;;13.10
15680;BMP180;15488;48.114;11.532;2023-04-03T06:04:57;95866.00;;;13.10
15680;BMP180;15488;48.114;11.532;2023-04-03T06:07:26;95877.00;;;13.10
15680;BMP180;15488;48.114;11.532;2023-04-03T06:09:56;95875.00;;;13.10
15680;BMP180;15488;48.114;11.532;2023-04-03T06:12:24;95869.00;;;13.10
15680;BMP180;15488;48.114;11.532;2023-04-03T06:14:51;95871.00;;;13.10
15680;BMP180;15488;48.114;11.532;2023-04-03T06:17:19;95874.00;;;13.10
15680;BMP180;15488;48.114;11.532;2023-04-03T06:19:46;95875.00;;;13.10
15680;BMP180;15488;48.114;11.532;2023-04-03T06:22:14;95875.00;;;13.10
15680;BMP180;15488;48.114;11.532;2023-04-03T06:24:42;95881.00;;;13.20
15680;BMP180;15488;48.114;11.532;2023-04-03T06:27:11;95877.00;;;13.20
15680;BMP180;15488;48.114;11.532;2023-04-03T06:29:39;95879.00;;;13.20
15680;BMP180;15488;48.114;11.532;2023-04-03T06:32:07;95880.00;;;13.20
15680;BMP180;15488;48.114;11.532;2023-04-03T06:34:34;95883.00;;;13.20
15680;BMP180;15488;48.114;11.532;2023-04-03T06:37:01;95887.00;;;13.20
15680;BMP180;15488;48.114;11.532;2023-04-03T06:39:29;95883.00;;;13.30
15680;BMP180;15488;48.114;11.532;2023-04-03T06:41:56;95886.00;;;13.30
15680;BMP180;15488;48.114;11.532;2023-04-03T06:44:25;95882.00;;;13.30
15680;BMP180;15488;48.114;11.532;2023-04-03T06:46:52;95884.00;;;13.30
15680;BMP180;15488;48.114;11.532;2023-04-03T06:49:20;95885.00;;;13.30
15680;BMP180;15488;48.114;11.532;2023-04-03T06:51:48;95881.00;;;13.40
15680;BMP180;15488;48.114;11.532;2023-04-03T06:54:15;95892.00;;;13.30
15680;BMP180;15488;48.114;11.532;2023-04-03T06:56:44;95888.00;;;13.30
15680;BMP180;15488;48.114;11.532;2023-04-03T06:59:12;95887.00;;;13.40
15680;BMP180;15488;48.114;11.532;2023-04-03T07:01:42;95885.00;;;13.40
15680;BMP180;15488;48.114;11.532;2023-04-03T07:04:09;95891.00;;;13.40
15680;BMP180;15488;48.114;11.532;2023-04-03T07:06:37;95890.00;;;13.40
15680;BMP180;15488;48.114;11.532;2023-04-03T07:09:04;95895.00;;;13.50
15680;BMP180;15488;48.114;11.532;2023-04-03T07:11:32;95916.00;;;13.60
15680;BMP180;15488;48.114;11.532;2023-04-03T07:13:59;95902.00;;;13.60
15680;BMP180;15488;48.114;11.532;2023-04-03T07:16:27;95907.00;;;13.60
15680;BMP180;15488;48.114;11.532;2023-04-03T07:18:58;95911.00;;;13.60
15680;BMP180;15488;48.114;11.532;2023-04-03T07:21:25;95914.00;;;13.70
15680;BMP180;15488;48.114;11.532;2023-04-03T07:23:53;95906.00;;;13.70
15680;BMP180;15488;48.114;11.532;2023-04-03T07:26:20;95916.00;;;13.80
15680;BMP180;15488;48.114;11.532;2023-04-03T07:28:48;95909.00;;;13.80
15680;BMP180;15488;48.114;11.532;2023-04-03T07:31:16;95914.00;;;13.80
15680;BMP180;15488;48.114;11.532;2023-04-03T07:33:45;95917.00;;;13.80
15680;BMP180;15488;48.114;11.532;2023-04-03T07:36:17;95917.00;;;13.90
15680;BMP180;15488;48.114;11.532;2023-04-03T07:38:44;95924.00;;;13.90
15680;BMP180;15488;48.114;11.532;2023-04-03T07:41:15;95926.00;;;13.90
15680;BMP180;15488;48.114;11.532;2023-04-03T07:43:43;95919.00;;;13.90
15680;BMP180;15488;48.114;11.532;2023-04-03T07:46:12;95928.00;;;14.00
15680;BMP180;15488;48.114;11.532;2023-04-03T07:48:40;95931.00;;;14.00
15680;BMP180;15488;48.114;11.532;2023-04-03T07:51:07;95934.00;;;14.00
15680;BMP180;15488;48.114;11.532;2023-04-03T07:53:36;95936.00;;;14.10
15680;BMP180;15488;48.114;11.532;2023-04-03T07:56:04;95934.00;;;14.10
15680;BMP180;15488;48.114;11.532;2023-04-03T07:58:31;95945.00;;;14.10
15680;BMP180;15488;48.114;11.532;2023-04-03T08:00:59;95937.00;;;14.10
15680;BMP180;15488;48.114;11.532;2023-04-03T08:03:26;95941.00;;;14.10
15680;BMP180;15488;48.114;11.532;2023-04-03T08:05:54;95936.00;;;14.10
15680;BMP180;15488;48.114;11.532;2023-04-03T08:08:22;95936.00;;;14.20
15680;BMP180;15488;48.114;11.532;2023-04-03T08:10:53;95937.00;;;14.10
15680;BMP180;15488;48.114;11.532;2023-04-03T08:13:21;95942.00;;;14.10
15680;BMP180;15488;48.114;11.532;2023-04-03T08:15:49;95948.00;;;14.20
15680;BMP180;15488;48.114;11.532;2023-04-03T08:18:17;95935.00;;;14.20
15680;BMP180;15488;48.114;11.532;2023-04-03T08:20:47;95943.00;;;14.10
15680;BMP180;15488;48.114;11.532;2023-04-03T08:23:15;95945.00;;;14.10
15680;BMP180;15488;48.114;11.532;2023-04-03T08:25:43;95948.00;;;14.10
15680;BMP180;15488;48.114;11.532;2023-04-03T08:28:12;95948.00;;;14.10
15680;BMP180;15488;48.114;11.532;2023-04-03T08:30:40;95941.00;;;14.10
15680;BMP180;15488;48.114;11.532;2023-04-03T08:33:09;95945.00;;;14.20
15680;BMP180;15488;48.114;11.532;2023-04-03T08:35:39;95949.00;;;14.20
15680;BMP180;15488;48.114;11.532;2023-04-03T08:38:07;95951.00;;;14.20
15680;BMP180;15488;48.114;11.532;2023-04-03T08:40:35;95950.00;;;14.10
15680;BMP180;15488;48.114;11.532;2023-04-03T08:43:23;95946.00;;;14.20
15680;BMP180;15488;48.114;11.532;2023-04-03T08:45:58;95951.00;;;14.20
15680;BMP180;15488;48.114;11.532;2023-04-03T08:48:29;95954.00;;;14.20
15680;BMP180;15488;48.114;11.532;2023-04-03T08:51:00;95955.00;;;14.30
15680;BMP180;15488;48.114;11.532;2023-04-03T08:53:34;95955.00;;;14.30
15680;BMP180;15488;48.114;11.532;2023-04-03T08:56:07;95952.00;;;14.20
15680;BMP180;15488;48.114;11.532;2023-04-03T08:58:42;95954.00;;;14.30
15680;BMP180;15488;48.114;11.532;2023-04-03T09:01:19;95959.00;;;14.30
15680;BMP180;15488;48.114;11.532;2023-04-03T09:03:47;95962.00;;;14.30
15680;BMP180;15488;48.114;11.532;2023-04-03T09:06:18;95963.00;;;14.20
15680;BMP180;15488;48.114;11.532;2023-04-03T09:08:51;95962.00;;;14.30
15680;BMP180;15488;48.114;11.532;2023-04-03T09:11:23;95959.00;;;14.30
15680;BMP180;15488;48.114;11.532;2023-04-03T09:13:59;95966.00;;;14.30
15680;BMP180;15488;48.114;11.532;2023-04-03T09:16:38;95964.00;;;14.40
15680;BMP180;15488;48.114;11.532;2023-04-03T09:19:14;95959.00;;;14.40
15680;BMP180;15488;48.114;11.532;2023-04-03T09:21:42;95958.00;;;14.50
15680;BMP180;15488;48.114;11.532;2023-04-03T09:24:11;95966.00;;;14.50
15680;BMP180;15488;48.114;11.532;2023-04-03T09:26:45;95963.00;;;14.50
15680;BMP180;15488;48.114;11.532;2023-04-03T09:29:22;95958.00;;;14.50
15680;BMP180;15488;48.114;11.532;2023-04-03T09:31:52;95953.00;;;14.60
15680;BMP180;15488;48.114;11.532;2023-04-03T09:34:25;95958.00;;;14.60
15680;BMP180;15488;48.114;11.532;2023-04-03T09:36:55;95957.00;;;14.60
15680;BMP180;15488;48.114;11.532;2023-04-03T09:39:25;95952.00;;;14.60
15680;BMP180;15488;48.114;11.532;2023-04-03T09:41:58;95946.00;;;14.70
15680;BMP180;15488;48.114;11.532;2023-04-03T09:44:30;95952.00;;;14.80
15680;BMP180;15488;48.114;11.532;2023-04-03T09:46:58;95955.00;;;14.80
15680;BMP180;15488;48.114;11.532;2023-04-03T09:49:26;95948.00;;;14.80
15680;BMP180;15488;48.114;11.532;2023-04-03T09:51:54;95950.00;;;14.90
15680;BMP180;15488;48.114;11.532;2023-04-03T09:54:30;95952.00;;;14.90
15680;BMP180;15488;48.114;11.532;2023-04-03T09:57:01;95957.00;;;15.00
15680;BMP180;15488;48.114;11.532;2023-04-03T09:59:31;95957.00;;;15.00
15680;BMP180;15488;48.114;11.532;2023-04-03T10:02:00;95954.00;;;14.90
15680;BMP180;15488;48.114;11.532;2023-04-03T10:04:38;95947.00;;;14.90
15680;BMP180;15488;48.114;11.532;2023-04-03T10:07:28;95949.00;;;15.00
15680;BMP180;15488;48.114;11.532;2023-04-03T10:09:56;95944.00;;;15.00
15680;BMP180;15488;48.114;11.532;2023-04-03T10:12:24;95945.00;;;15.00
15680;BMP180;15488;48.114;11.532;2023-04-03T10:14:58;95945.00;;;15.00
15680;BMP180;15488;48.114;11.532;2023-04-03T10:17:37;95947.00;;;15.00
15680;BMP180;15488;48.114;11.532;2023-04-03T10:20:16;95944.00;;;15.00
15680;BMP180;15488;48.114;11.532;2023-04-03T10:22:56;95945.00;;;15.00
15680;BMP180;15488;48.114;11.532;2023-04-03T10:25:30;95943.00;;;15.00
15680;BMP180;15488;48.114;11.532;2023-04-03T10:28:01;95946.00;;;15.00
15680;BMP180;15488;48.114;11.532;2023-04-03T10:30:42;95946.00;;;15.00
15680;BMP180;15488;48.114;11.532;2023-04-03T10:33:28;95946.00;;;15.00
15680;BMP180;15488;48.114;11.532;2023-04-03T10:36:07;95950.00;;;15.00
15680;BMP180;15488;48.114;11.532;2023-04-03T10:38:43;95955.00;;;15.00
15680;BMP180;15488;48.114;11.532;2023-04-03T10:41:19;95949.00;;;14.90
15680;BMP180;15488;48.114;11.532;2023-04-03T10:43:57;95945.00;;;14.90
15680;BMP180;15488;48.114;11.532;2023-04-03T10:46:35;95949.00;;;14.80
15680;BMP180;15488;48.114;11.532;2023-04-03T10:49:18;95956.00;;;14.90
15680;BMP180;15488;48.114;11.532;2023-04-03T10:51:50;95961.00;;;14.80
15680;BMP180;15488;48.114;11.532;2023-04-03T10:54:25;95956.00;;;14.80
15680;BMP180;15488;48.114;11.532;2023-04-03T10:56:55;95954.00;;;14.30
15680;BMP180;15488;48.114;11.532;2023-04-03T10:59:26;95955.00;;;14.80
15680;BMP180;15488;48.114;11.532;2023-04-03T11:01:58;95965.00;;;14.60
15680;BMP180;15488;48.114;11.532;2023-04-03T11:04:29;95956.00;;;14.70
15680;BMP180;15488;48.114;11.532;2023-04-03T11:07:02;95970.00;;;14.70
15680;BMP180;15488;48.114;11.532;2023-04-03T11:09:34;95965.00;;;14.70
15680;BMP180;15488;48.114;11.532;2023-04-03T11:12:06;95964.00;;;14.60
15680;BMP180;15488;48.114;11.532;2023-04-03T11:14:37;95958.00;;;14.60
15680;BMP180;15488;48.114;11.532;2023-04-03T11:17:11;95954.00;;;14.50
15680;BMP180;15488;48.114;11.532;2023-04-03T11:19:46;95952.00;;;14.60
15680;BMP180;15488;48.114;11.532;2023-04-03T11:22:22;95955.00;;;14.50
15680;BMP180;15488;48.114;11.532;2023-04-03T11:24:59;95947.00;;;14.50
15680;BMP180;15488;48.114;11.532;2023-04-03T11:27:33;95952.00;;;14.50
15680;BMP180;15488;48.114;11.532;2023-04-03T11:30:07;95948.00;;;14.50
15680;BMP180;15488;48.114;11.532;2023-04-03T11:35:43;95945.00;;;14.40
15680;BMP180;15488;48.114;11.532;2023-04-03T11:38:17;95944.00;;;14.50
15680;BMP180;15488;48.114;11.532;2023-04-03T11:40:48;95932.00;;;14.50
15680;BMP180;15488;48.114;11.532;2023-04-03T11:43:24;95934.00;;;14.50
15680;BMP180;15488;48.114;11.532;2023-04-03T11:45:57;95934.00;;;14.60
15680;BMP180;15488;48.114;11.532;2023-04-03T11:48:50;95940.00;;;14.60
15680;BMP180;15488;48.114;11.532;2023-04-03T11:51:41;95930.00;;;14.70
15680;BMP180;15488;48.114;11.532;2023-04-03T11:54:47;95932.00;;;14.70
15680;BMP180;15488;48.114;11.532;2023-04-03T11:57:44;95930.00;;;14.80
15680;BMP180;15488;48.114;11.532;2023-04-03T12:00:47;95930.00;;;14.90
15680;BMP180;15488;48.114;11.532;2023-04-03T12:09:58;95919.00;;;15.10
15680;BMP180;15488;48.114;11.532;2023-04-03T12:12:30;95919.00;;;15.10
15680;BMP180;15488;48.114;11.532;2023-04-03T12:18:38;95915.00;;;15.20
15680;BMP180;15488;48.114;11.532;2023-04-03T12:21:07;95916.00;;;15.10
15680;BMP180;15488;48.114;11.532;2023-04-03T12:23:36;95908.00;;;15.20
15680;BMP180;15488;48.114;11.532;2023-04-03T12:29:02;95905.00;;;15.30
15680;BMP180;15488;48.114;11.532;2023-04-03T12:31:48;95911.00;;;15.30
15680;BMP180;15488;48.114;11.532;2023-04-03T12:34:42;95907.00;;;15.30
15680;BMP180;15488;48.114;11.532;2023-04-03T12:37:23;95905.00;;;15.30
15680;BMP180;15488;48.114;11.532;2023-04-03T12:39:55;95905.00;;;15.40
15680;BMP180;15488;48.114;11.532;2023-04-03T12:42:55;95906.00;;;15.40
15680;BMP180;15488;48.114;11.532;2023-04-03T12:45:26;95900.00;;;15.30
15680;BMP180;15488;48.114;11.532;2023-04-03T12:47:55;95899.00;;;15.30
15680;BMP180;15488;48.114;11.532;2023-04-03T12:50:24;95900.00;;;15.40
15680;BMP180;15488;48.114;11.532;2023-04-03T12:52:59;95892.00;;;15.40
15680;BMP180;15488;48.114;11.532;2023-04-03T12:55:28;95887.00;;;15.50
15680;BMP180;15488;48.114;11.532;2023-04-03T12:57:56;95886.00;;;15.40
15680;BMP180;15488;48.114;11.532;2023-04-03T13:00:35;95888.00;;;15.50
15680;BMP180;15488;48.114;11.532;2023-04-03T13:03:06;95895.00;;;15.50
15680;BMP180;15488;48.114;11.532;2023-04-03T13:05:46;95889.00;;;15.60
15680;BMP180;15488;48.114;11.532;2023-04-03T13:08:14;95887.00;;;15.50
15680;BMP180;15488;48.114;11.532;2023-04-03T13:10:55;95886.00;;;15.60
15680;BMP180;15488;48.114;11.532;2023-04-03T13:13:24;95884.00;;;15.60
15680;BMP180;15488;48.114;11.532;2023-04-03T13:15:54;95876.00;;;15.60
15680;BMP180;15488;48.114;11.532;2023-04-03T13:18:27;95880.00;;;15.60
15680;BMP180;15488;48.114;11.532;2023-04-03T13:21:01;95882.00;;;15.70
15680;BMP180;15488;48.114;11.532;2023-04-03T13:23:30;95876.00;;;15.70
15680;BMP180;15488;48.114;11.532;2023-04-03T13:25:59;95880.00;;;15.80
15680;BMP180;15488;48.114;11.532;2023-04-03T13:28:31;95879.00;;;15.90
15680;BMP180;15488;48.114;11.532;2023-04-03T13:31:07;95873.00;;;15.90
15680;BMP180;15488;48.114;11.532;2023-04-03T13:33:36;95870.00;;;16.00
15680;BMP180;15488;48.114;11.532;2023-04-03T13:36:08;95869.00;;;16.50
15680;BMP180;15488;48.114;11.532;2023-04-03T13:38:38;95873.00;;;17.00
15680;BMP180;15488;48.114;11.532;2023-04-03T13:41:23;95869.00;;;17.60
15680;BMP180;15488;48.114;11.532;2023-04-03T13:43:52;95870.00;;;18.30
15680;BMP180;15488;48.114;11.532;2023-04-03T13:46:26;95875.00;;;18.80
15680;BMP180;15488;48.114;11.532;2023-04-03T13:48:55;95866.00;;;19.20
15680;BMP180;15488;48.114;11.532;2023-04-03T13:51:25;95877.00;;;19.40
15680;BMP180;15488;48.114;11.532;2023-04-03T13:53:55;95872.00;;;19.60
15680;BMP180;15488;48.114;11.532;2023-04-03T13:56:31;95868.00;;;19.60
15680;BMP180;15488;48.114;11.532;2023-04-03T13:59:03;95857.00;;;19.60
15680;BMP180;15488;48.114;11.532;2023-04-03T14:01:42;95870.00;;;19.50
15680;BMP180;15488;48.114;11.532;2023-04-03T14:04:18;95868.00;;;19.30
15680;BMP180;15488;48.114;11.532;2023-04-03T14:06:47;95868.00;;;19.20
15680;BMP180;15488;48.114;11.532;2023-04-03T14:09:16;95870.00;;;19.00
15680;BMP180;15488;48.114;11.532;2023-04-03T14:11:44;95886.00;;;18.90
15680;BMP180;15488;48.114;11.532;2023-04-03T14:14:16;95866.00;;;18.70
15680;BMP180;15488;48.114;11.532;2023-04-03T14:16:49;95863.00;;;18.50
15680;BMP180;15488;48.114;11.532;2023-04-03T14:19:22;95866.00;;;18.30
15680;BMP180;15488;48.114;11.532;2023-04-03T14:21:50;95855.00;;;18.20
15680;BMP180;15488;48.114;11.532;2023-04-03T14:24:19;95848.00;;;18.10
15680;BMP180;15488;48.114;11.532;2023-04-03T14:26:47;95850.00;;;17.90
15680;BMP180;15488;48.114;11.532;2023-04-03T14:29:15;95845.00;;;17.90
15680;BMP180;15488;48.114;11.532;2023-04-03T14:31:46;95856.00;;;17.80